createdAt,value
2018-01-24T05:09:32.863Z,1.37
2018-01-24T05:12:20.151Z,1.40
2018-01-24T05:15:00.651Z,1.40
2018-01-24T06:31:31.208Z,1.87
2018-01-24T07:19:01.706Z,0.50
2018-01-24T07:58:13.705Z,0.80
2018-01-24T09:40:16.645Z,1.10
2018-01-24T09:42:44.954Z,0.40
2018-01-24T10:08:58.310Z,0.40
2018-01-24T10:27:07.728Z,0.60
2018-01-24T10:32:20.902Z,0.50
2018-01-24T11:33:50.162Z,0.60
2018-01-24T11:39:09.974Z,0.70
2018-01-24T11:41:43.097Z,0.50
2018-01-24T11:44:21.039Z,0.40
2018-01-24T11:46:53.903Z,0.47
2018-01-24T11:52:02.511Z,0.50
2018-01-24T11:54:33.311Z,0.40
2018-01-24T11:57:07.636Z,0.40
2018-01-24T11:59:40.452Z,0.40
2018-01-24T12:02:15.115Z,0.43
2018-01-24T12:26:13.938Z,0.40
2018-01-24T12:49:32.240Z,0.90
2018-01-24T12:51:59.795Z,0.80
2018-01-24T12:54:28.675Z,1.00
2018-01-24T12:56:56.998Z,0.97
2018-01-24T12:59:24.086Z,0.70
2018-01-24T13:01:51.367Z,0.67
2018-01-24T13:04:20.023Z,0.80
2018-01-24T13:06:48.198Z,0.60
2018-01-24T13:09:20.757Z,0.70
2018-01-24T13:11:48.325Z,0.50
2018-01-24T13:14:32.547Z,0.60
2018-01-24T13:38:12.682Z,0.50
2018-01-24T13:40:42.350Z,0.50
2018-01-24T13:43:10.253Z,0.40
2018-01-24T13:45:39.599Z,0.30
2018-01-24T13:48:09.894Z,0.40
2018-01-24T13:50:37.737Z,0.50
2018-01-24T13:53:05.414Z,0.50
2018-01-24T13:55:34.205Z,0.77
2018-01-24T13:58:04.121Z,0.50
2018-01-24T14:00:31.240Z,0.60
2018-01-24T14:02:59.159Z,0.60
2018-01-24T14:05:27.385Z,0.50
2018-01-24T14:07:55.876Z,0.50
2018-01-24T14:34:00.947Z,0.30
2018-01-24T14:36:37.631Z,0.47
2018-01-24T14:41:41.510Z,0.60
2018-01-24T14:46:47.215Z,0.50
2018-01-24T14:49:18.059Z,0.50
2018-01-24T14:51:46.218Z,0.40
2018-01-24T15:28:41.627Z,0.47
2018-01-24T15:31:11.872Z,0.70
2018-01-24T15:33:42.827Z,0.90
2018-01-24T15:56:56.555Z,0.77
2018-01-24T15:59:24.759Z,0.60
2018-01-24T16:01:54.008Z,0.50
2018-01-24T16:04:22.013Z,0.50
2018-01-24T16:06:49.972Z,1.00
2018-01-24T16:09:17.506Z,0.60
2018-01-24T16:11:45.276Z,0.50
2018-01-24T16:14:13.695Z,0.70
2018-01-24T16:16:41.170Z,0.70
2018-01-24T16:19:10.009Z,0.60
2018-01-24T16:21:40.341Z,0.90
2018-01-24T16:24:12.698Z,0.87
2018-01-24T16:26:42.643Z,0.60
2018-01-24T16:29:10.152Z,0.50
2018-01-24T16:31:37.483Z,0.73
2018-01-24T16:34:04.883Z,0.67
2018-01-24T16:36:32.039Z,0.70
2018-01-24T16:39:02.098Z,0.83
2018-01-24T16:41:39.759Z,0.90
2018-01-24T16:44:08.909Z,0.90
2018-01-24T17:07:49.460Z,0.80
2018-01-24T17:10:19.109Z,0.87
2018-01-24T17:33:21.580Z,0.80
2018-01-24T17:35:48.702Z,0.60
2018-01-24T17:38:22.342Z,0.73
2018-01-24T17:40:56.535Z,0.80
2018-01-24T17:43:24.934Z,0.63
2018-01-24T17:45:57.186Z,0.70
2018-01-24T17:48:24.946Z,1.00
2018-01-24T17:51:01.147Z,0.70
2018-01-24T17:53:29.831Z,0.93
2018-01-24T17:56:00.352Z,0.70
2018-01-24T17:58:28.273Z,0.80
2018-01-24T18:00:57.148Z,0.80
2018-01-24T18:03:24.390Z,0.60
2018-01-24T18:26:55.427Z,0.80
2018-01-24T18:29:23.529Z,0.67
2018-01-24T18:31:51.016Z,0.60
2018-01-24T18:34:50.017Z,0.50
2018-01-24T18:37:18.485Z,0.80
2018-01-24T18:39:45.589Z,0.77
2018-01-24T18:42:16.398Z,0.60
2018-01-24T18:44:43.595Z,0.53
2018-01-24T18:47:13.121Z,0.73
2018-01-24T18:52:49.772Z,0.77
2018-01-24T18:55:17.007Z,0.97
2018-01-24T18:57:48.178Z,1.00
2018-01-24T19:00:19.735Z,0.80
2018-01-24T19:23:43.586Z,0.83
2018-01-24T19:26:11.731Z,0.97
2018-01-24T19:28:55.535Z,0.80
2018-01-24T19:31:24.030Z,1.23
2018-01-24T20:15:56.201Z,1.03
2018-01-24T20:36:36.626Z,1.10
2018-01-24T20:39:44.088Z,0.97
2018-01-24T21:00:15.392Z,1.03
2018-01-24T21:02:53.203Z,1.03
2018-01-24T21:05:29.096Z,1.00
2018-01-24T21:07:57.538Z,1.43
2018-01-24T21:10:45.544Z,1.17
2018-01-24T21:13:13.601Z,1.10
2018-01-24T21:15:42.776Z,1.23
2018-01-24T21:18:27.123Z,1.30
2018-01-24T21:23:45.610Z,1.40
2018-01-24T21:26:15.609Z,1.10
2018-01-24T21:29:02.849Z,0.90
2018-01-24T21:31:48.776Z,1.20
2018-01-24T21:34:34.532Z,1.10
2018-01-24T21:37:04.323Z,1.30
2018-01-24T21:39:32.119Z,1.30
2018-01-24T21:42:01.648Z,1.37
2018-01-24T21:44:32.949Z,1.33
2018-01-24T21:47:04.239Z,1.50
2018-01-24T21:49:55.985Z,1.10
2018-01-24T21:52:23.449Z,1.70
2018-01-24T21:54:55.279Z,1.53
2018-01-24T21:57:38.955Z,1.20
2018-01-24T22:00:07.616Z,1.43
2018-01-24T22:02:40.732Z,1.50
2018-01-24T22:05:19.392Z,1.33
2018-01-24T22:07:51.228Z,1.47
2018-01-24T22:10:25.871Z,1.43
2018-01-24T22:12:59.669Z,1.30
2018-01-24T22:42:23.984Z,1.53
2018-01-24T22:44:51.233Z,1.83
2018-01-24T22:47:18.257Z,1.60
2018-01-24T22:49:45.452Z,1.80
2018-01-24T22:52:13.684Z,1.37
2018-01-24T22:54:40.830Z,1.73
2018-01-24T22:57:26.027Z,1.40
2018-01-24T22:59:57.196Z,1.67
2018-01-24T23:02:25.778Z,1.47
2018-01-24T23:25:35.117Z,1.87
2018-01-24T23:28:02.711Z,1.30
2018-01-24T23:30:31.015Z,1.50
2018-01-24T23:33:02.494Z,1.87
2018-01-24T23:35:32.128Z,1.13
2018-01-24T23:38:05.116Z,1.63
2018-01-24T23:40:32.271Z,1.70
2018-01-24T23:43:02.641Z,1.80
2018-01-24T23:45:42.231Z,1.53
2018-01-24T23:48:13.819Z,2.07
2018-01-24T23:50:41.730Z,1.40
2018-01-24T23:53:09.620Z,1.53
2018-01-24T23:55:37.054Z,1.60
2018-01-24T23:58:04.306Z,1.70
